createdAt,value
2022-08-17T00:01:27.581Z,14.98
2022-08-17T00:06:32.831Z,15.38
2022-08-17T00:11:38.606Z,13.77
2022-08-17T00:16:55.544Z,14.10
2022-08-17T00:22:34.759Z,14.27
2022-08-17T00:27:26.480Z,14.93
2022-08-17T00:33:15.648Z,15.27
2022-08-17T00:37:55.226Z,15.00
2022-08-17T00:42:58.550Z,15.07
2022-08-17T00:48:01.861Z,14.17
2022-08-17T00:53:07.116Z,13.87
2022-08-17T00:58:11.630Z,13.90
2022-08-17T01:03:19.645Z,14.18
2022-08-17T01:08:28.271Z,14.13
2022-08-17T01:13:40.766Z,13.40
2022-08-17T01:18:46.938Z,14.27
2022-08-17T01:23:51.769Z,13.32
2022-08-17T01:28:56.164Z,12.98
2022-08-17T01:39:08.160Z,12.55
2022-08-17T01:44:11.606Z,13.20
2022-08-17T01:49:14.901Z,12.90
2022-08-17T01:54:20.830Z,13.13
2022-08-17T01:59:24.398Z,12.38
2022-08-17T02:04:28.069Z,12.30
2022-08-17T02:09:32.903Z,12.70
2022-08-17T02:14:36.588Z,11.93
2022-08-17T02:19:40.575Z,11.27
2022-08-17T02:25:01.252Z,11.65
2022-08-17T02:31:01.045Z,11.60
2022-08-17T02:35:32.430Z,11.98
2022-08-17T02:40:40.622Z,12.47
2022-08-17T02:45:44.302Z,11.18
2022-08-17T02:50:48.202Z,11.00
2022-08-17T02:55:52.937Z,10.52
2022-08-17T03:00:56.737Z,10.85
2022-08-17T03:06:00.582Z,11.00
2022-08-17T03:11:05.612Z,9.93
2022-08-17T03:16:10.016Z,10.50
2022-08-17T03:26:17.738Z,9.45
2022-08-17T03:31:22.814Z,9.77
2022-08-17T03:36:26.197Z,10.40
2022-08-17T03:41:30.991Z,9.43
2022-08-17T03:46:51.896Z,9.57
2022-08-17T03:52:13.856Z,9.60
2022-08-17T03:57:19.427Z,9.00
2022-08-17T04:02:25.514Z,8.50
2022-08-17T04:07:31.085Z,7.88
2022-08-17T04:12:46.948Z,8.20
2022-08-17T04:17:50.483Z,7.85
2022-08-17T04:22:58.555Z,7.90
2022-08-17T04:28:04.018Z,7.22
2022-08-17T04:33:14.152Z,7.30
2022-08-17T04:38:19.941Z,6.85
2022-08-17T04:43:27.211Z,6.93
2022-08-17T04:48:36.391Z,7.07
2022-08-17T04:53:41.499Z,7.18
2022-08-17T04:58:49.742Z,6.75
2022-08-17T05:03:54.835Z,6.85
2022-08-17T05:08:59.418Z,6.50
2022-08-17T05:14:04.865Z,6.95
2022-08-17T05:19:08.483Z,6.80
2022-08-17T05:24:38.348Z,6.22
2022-08-17T05:29:37.698Z,6.65
2022-08-17T05:34:41.005Z,6.57
2022-08-17T05:39:45.176Z,6.80
2022-08-17T05:44:49.982Z,6.30
2022-08-17T05:49:53.799Z,6.03
2022-08-17T05:55:11.727Z,6.60
2022-08-17T06:00:21.847Z,6.38
2022-08-17T06:05:51.624Z,5.78
2022-08-17T06:11:00.584Z,5.70
2022-08-17T06:16:25.971Z,5.70
2022-08-17T06:21:40.769Z,5.65
2022-08-17T06:26:45.802Z,5.82
2022-08-17T06:31:51.191Z,5.75
2022-08-17T06:37:14.986Z,5.38
2022-08-17T06:43:05.026Z,6.00
2022-08-17T06:47:57.025Z,5.20
2022-08-17T06:53:05.892Z,5.05
2022-08-17T06:58:16.336Z,5.82
2022-08-17T07:03:32.382Z,5.57
2022-08-17T07:08:48.376Z,5.22
2022-08-17T07:13:59.191Z,5.47
2022-08-17T07:19:04.409Z,5.07
2022-08-17T07:24:33.242Z,4.88
2022-08-17T07:29:54.894Z,4.93
2022-08-17T07:35:10.836Z,5.03
2022-08-17T07:40:29.692Z,5.03
2022-08-17T07:45:53.563Z,5.00
2022-08-17T07:50:57.365Z,4.75
2022-08-17T07:56:00.775Z,4.80
2022-08-17T08:01:09.208Z,5.13
2022-08-17T08:06:23.136Z,4.45
2022-08-17T08:11:32.387Z,4.20
2022-08-17T08:16:37.698Z,4.63
2022-08-17T08:21:48.922Z,3.63
2022-08-17T08:27:04.393Z,3.97
2022-08-17T08:32:20.307Z,4.15
2022-08-17T08:37:42.507Z,4.03
2022-08-17T08:42:56.542Z,4.30
2022-08-17T08:48:23.145Z,4.15
2022-08-17T08:53:51.680Z,4.35
2022-08-17T08:59:03.549Z,4.00
2022-08-17T09:04:27.296Z,3.90
2022-08-17T09:09:41.582Z,4.35
2022-08-17T09:14:53.082Z,3.90
2022-08-17T09:20:02.757Z,3.90
2022-08-17T09:25:11.696Z,4.13
2022-08-17T09:30:15.878Z,4.28
2022-08-17T09:35:25.220Z,4.13
2022-08-17T09:40:52.776Z,3.90
2022-08-17T09:46:02.643Z,4.40
2022-08-17T09:51:14.856Z,3.88
2022-08-17T09:56:34.694Z,4.00
2022-08-17T10:01:43.574Z,4.07
2022-08-17T10:06:59.232Z,4.20
2022-08-17T10:12:17.792Z,3.90
2022-08-17T10:17:29.418Z,4.00
2022-08-17T10:23:10.758Z,4.20
2022-08-17T10:28:19.882Z,4.65
2022-08-17T10:33:26.079Z,4.60
2022-08-17T10:38:40.042Z,4.35
2022-08-17T10:43:57.829Z,4.38
2022-08-17T10:49:34.811Z,4.82
2022-08-17T10:54:48.400Z,5.05
2022-08-17T10:59:53.987Z,5.45
2022-08-17T11:05:47.909Z,5.15
2022-08-17T11:11:07.687Z,5.40
2022-08-17T11:16:32.744Z,5.32
2022-08-17T11:22:02.987Z,5.20
2022-08-17T11:27:23.643Z,5.22
2022-08-17T11:32:34.147Z,5.38
2022-08-17T11:37:47.901Z,5.60
2022-08-17T11:48:33.950Z,7.77
2022-08-17T11:54:32.837Z,7.70
2022-08-17T11:59:59.020Z,7.63
2022-08-17T12:05:27.592Z,7.25
2022-08-17T12:10:34.424Z,7.65
2022-08-17T12:15:48.846Z,6.70
2022-08-17T12:21:19.430Z,7.60
2022-08-17T12:26:30.443Z,8.40
2022-08-17T12:31:43.448Z,7.95
2022-08-17T12:36:48.338Z,7.57
2022-08-17T12:41:57.358Z,6.03
2022-08-17T12:47:09.917Z,5.40
2022-08-17T12:52:16.955Z,5.18
2022-08-17T12:57:23.954Z,5.63
2022-08-17T13:02:45.511Z,5.00
2022-08-17T13:07:49.618Z,5.70
2022-08-17T13:12:53.690Z,4.82
2022-08-17T13:18:03.988Z,4.80
2022-08-17T13:23:12.445Z,5.10
2022-08-17T13:28:35.722Z,5.10
2022-08-17T13:33:44.959Z,4.95
2022-08-17T13:38:51.077Z,4.80
2022-08-17T13:43:54.508Z,4.50
2022-08-17T13:49:01.894Z,5.63
2022-08-17T13:54:25.751Z,5.47
2022-08-17T13:59:52.568Z,4.68
2022-08-17T14:05:00.638Z,5.18
2022-08-17T14:10:08.526Z,5.50
2022-08-17T14:15:14.178Z,5.10
2022-08-17T14:20:22.853Z,5.10
2022-08-17T14:25:28.898Z,5.35
2022-08-17T14:30:32.662Z,5.45
2022-08-17T14:35:37.570Z,4.90
2022-08-17T14:40:41.148Z,4.50
2022-08-17T14:45:45.023Z,4.57
2022-08-17T14:50:49.799Z,5.05
2022-08-17T14:55:53.233Z,5.80
2022-08-17T15:00:56.891Z,4.70
2022-08-17T15:06:02.849Z,4.60
2022-08-17T15:11:06.679Z,5.20
2022-08-17T15:16:15.179Z,5.20
2022-08-17T15:21:20.588Z,5.00
2022-08-17T15:26:26.358Z,5.75
2022-08-17T15:31:32.118Z,5.03
2022-08-17T15:36:37.574Z,5.53
2022-08-17T15:41:44.949Z,5.57
2022-08-17T15:46:49.897Z,5.78
2022-08-17T15:51:54.927Z,6.45
2022-08-17T15:56:58.341Z,5.80
2022-08-17T16:07:26.946Z,6.65
2022-08-17T16:12:30.483Z,6.20
2022-08-17T16:22:46.998Z,6.50
2022-08-17T16:27:53.728Z,7.07
2022-08-17T16:32:59.945Z,6.20
2022-08-17T16:38:04.906Z,6.22
2022-08-17T16:43:12.203Z,7.10
2022-08-17T16:48:16.573Z,6.60
2022-08-17T16:53:21.787Z,6.88
2022-08-17T16:58:25.205Z,7.00
2022-08-17T17:03:30.875Z,6.90
2022-08-17T17:08:44.370Z,6.85
2022-08-17T17:13:54.867Z,6.75
2022-08-17T17:19:09.658Z,7.03
2022-08-17T17:24:22.988Z,7.25
2022-08-17T17:29:48.084Z,8.32
2022-08-17T17:34:56.212Z,9.20
2022-08-17T17:40:05.226Z,7.70
2022-08-17T17:45:16.099Z,7.88
2022-08-17T17:50:35.888Z,7.57
2022-08-17T17:55:55.260Z,7.55
2022-08-17T18:01:20.315Z,7.82
2022-08-17T18:06:39.925Z,7.60
2022-08-17T18:11:59.220Z,7.63
2022-08-17T18:17:03.313Z,7.28
2022-08-17T18:22:14.182Z,7.03
2022-08-17T18:27:26.661Z,7.22
2022-08-17T18:32:36.149Z,6.35
2022-08-17T18:37:46.325Z,7.18
2022-08-17T18:43:04.252Z,6.28
2022-08-17T18:48:21.149Z,6.13
2022-08-17T18:53:34.752Z,6.00
2022-08-17T18:58:40.933Z,6.20
2022-08-17T19:03:46.561Z,6.60
2022-08-17T19:08:49.975Z,6.10
2022-08-17T19:13:58.391Z,6.68
2022-08-17T19:19:06.467Z,6.65
2022-08-17T19:24:19.475Z,6.95
2022-08-17T19:29:31.176Z,6.70
2022-08-17T19:34:37.004Z,5.88
2022-08-17T19:40:00.865Z,6.55
2022-08-17T19:45:17.030Z,6.13
2022-08-17T19:50:26.645Z,5.95
2022-08-17T19:55:37.992Z,6.57
2022-08-17T20:00:50.520Z,6.05
2022-08-17T20:06:13.879Z,6.32
2022-08-17T20:11:22.150Z,5.38
2022-08-17T20:16:27.317Z,6.38
2022-08-17T20:21:37.254Z,6.32
2022-08-17T20:26:58.114Z,5.75
2022-08-17T20:32:24.117Z,6.32
2022-08-17T20:37:31.236Z,5.68
2022-08-17T20:42:35.594Z,6.30
2022-08-17T20:48:07.401Z,6.45
2022-08-17T20:53:13.546Z,5.82
2022-08-17T20:58:38.444Z,7.18
2022-08-17T21:03:52.290Z,6.18
2022-08-17T21:09:19.723Z,6.28
2022-08-17T21:14:33.012Z,5.75
2022-08-17T21:20:10.239Z,5.60
2022-08-17T21:25:37.236Z,5.50
2022-08-17T21:30:48.899Z,6.10
2022-08-17T21:36:16.428Z,6.00
2022-08-17T21:41:22.321Z,6.10
2022-08-17T21:46:30.575Z,6.35
2022-08-17T21:51:38.834Z,6.07
2022-08-17T21:56:47.257Z,6.25
2022-08-17T22:01:54.110Z,6.32
2022-08-17T22:07:00.587Z,6.10
2022-08-17T22:12:09.235Z,6.43
2022-08-17T22:17:17.858Z,6.18
2022-08-17T22:22:29.355Z,6.72
2022-08-17T22:27:49.133Z,6.95
2022-08-17T22:32:52.778Z,6.47
2022-08-17T22:37:57.653Z,6.38
2022-08-17T22:43:03.556Z,5.72
2022-08-17T22:48:07.512Z,6.60
2022-08-17T22:53:38.132Z,6.43
2022-08-17T22:59:02.845Z,6.50
2022-08-17T23:04:08.789Z,6.20
2022-08-17T23:09:13.615Z,6.57
2022-08-17T23:14:19.319Z,6.75
2022-08-17T23:19:23.283Z,6.65
2022-08-17T23:24:30.292Z,7.03
2022-08-17T23:29:33.701Z,6.78
2022-08-17T23:34:39.068Z,6.47
2022-08-17T23:39:45.145Z,6.35
2022-08-17T23:44:49.433Z,6.55
2022-08-17T23:55:00.271Z,6.40
